sensor_id;sensor_type;location;lat;lon;timestamp;pressure;altitude;pressure_sealevel;temperature;humidity
3132;BME280;62090;52.330;9.104;2023-02-16T00:02:08;101862.63;;;5.90;87.15
3132;BME280;62090;52.330;9.104;2023-02-16T00:15:19;101806.56;;;5.57;88.32
3132;BME280;62090;52.330;9.104;2023-02-16T00:17:49;101754.03;;;5.25;88.10
3132;BME280;62090;52.330;9.104;2023-02-16T00:20:19;101827.66;;;5.70;88.06
3132;BME280;62090;52.330;9.104;2023-02-16T00:22:49;101817.16;;;5.64;88.44
3132;BME280;62090;52.330;9.104;2023-02-16T00:25:18;101745.88;;;5.16;88.33
3132;BME280;62090;52.330;9.104;2023-02-16T00:27:48;101836.22;;;5.59;88.75
3132;BME280;62090;52.330;9.104;2023-02-16T00:30:21;101797.75;;;5.37;88.89
3132;BME280;62090;52.330;9.104;2023-02-16T00:32:51;101727.94;;;4.85;89.58
3132;BME280;62090;52.330;9.104;2023-02-16T00:35:21;101837.22;;;5.48;89.93
3132;BME280;62090;52.330;9.104;2023-02-16T00:37:50;101841.34;;;5.61;90.05
3132;BME280;62090;52.330;9.104;2023-02-16T00:40:20;101817.66;;;5.45;90.02
3132;BME280;62090;52.330;9.104;2023-02-16T00:42:50;101726.75;;;4.93;89.67
3132;BME280;62090;52.330;9.104;2023-02-16T00:45:25;101777.97;;;5.17;89.92
3132;BME280;62090;52.330;9.104;2023-02-16T00:47:55;101679.88;;;4.57;89.89
3132;BME280;62090;52.330;9.104;2023-02-16T00:50:27;101741.25;;;4.95;90.27
3132;BME280;62090;52.330;9.104;2023-02-16T00:52:58;101644.06;;;4.36;90.49
3132;BME280;62090;52.330;9.104;2023-02-16T00:55:30;101843.75;;;5.44;91.10
3132;BME280;62090;52.330;9.104;2023-02-16T00:58:04;101796.25;;;5.13;91.25
3132;BME280;62090;52.330;9.104;2023-02-16T01:00:40;101768.84;;;5.05;91.14
3132;BME280;62090;52.330;9.104;2023-02-16T01:03:13;101804.06;;;5.43;91.27
3132;BME280;62090;52.330;9.104;2023-02-16T01:05:45;101746.88;;;5.04;90.92
3132;BME280;62090;52.330;9.104;2023-02-16T01:08:16;101829.25;;;5.55;91.08
3132;BME280;62090;52.330;9.104;2023-02-16T01:10:59;101793.84;;;5.42;91.28
3132;BME280;62090;52.330;9.104;2023-02-16T01:13:43;101816.06;;;5.61;91.24
3132;BME280;62090;52.330;9.104;2023-02-16T01:16:19;101708.13;;;4.91;91.03
3132;BME280;62090;52.330;9.104;2023-02-16T01:18:50;101735.41;;;5.09;91.23
3132;BME280;62090;52.330;9.104;2023-02-16T01:21:22;101646.41;;;4.59;91.71
3132;BME280;62090;52.330;9.104;2023-02-16T01:23:52;101646.97;;;4.68;91.11
3132;BME280;62090;52.330;9.104;2023-02-16T01:26:23;101812.38;;;5.56;91.28
3132;BME280;62090;52.330;9.104;2023-02-16T01:28:53;101751.13;;;5.19;91.71
3132;BME280;62090;52.330;9.104;2023-02-16T01:31:26;101815.22;;;5.47;91.84
3132;BME280;62090;52.330;9.104;2023-02-16T01:33:56;101644.06;;;4.62;91.76
3132;BME280;62090;52.330;9.104;2023-02-16T01:36:29;101718.69;;;5.12;91.46
3132;BME280;62090;52.330;9.104;2023-02-16T01:39:02;101767.53;;;5.38;91.36
3132;BME280;62090;52.330;9.104;2023-02-16T01:41:54;101794.03;;;5.45;91.32
3132;BME280;62090;52.330;9.104;2023-02-16T01:44:28;101755.19;;;5.30;92.10
3132;BME280;62090;52.330;9.104;2023-02-16T01:47:22;101787.97;;;5.56;91.59
3132;BME280;62090;52.330;9.104;2023-02-16T01:49:57;101780.41;;;5.56;91.58
3132;BME280;62090;52.330;9.104;2023-02-16T01:52:32;101683.94;;;5.07;91.39
3132;BME280;62090;52.330;9.104;2023-02-16T01:55:08;101744.28;;;5.44;90.95
3132;BME280;62090;52.330;9.104;2023-02-16T01:57:45;101543.81;;;4.34;90.58
3132;BME280;62090;52.330;9.104;2023-02-16T02:00:26;101800.34;;;5.92;90.20
3132;BME280;62090;52.330;9.104;2023-02-16T02:03:13;101742.25;;;5.66;89.65
3132;BME280;62090;52.330;9.104;2023-02-16T02:06:00;101816.88;;;6.01;89.85
3132;BME280;62090;52.330;9.104;2023-02-16T02:08:37;101722.34;;;5.58;89.05
3132;BME280;62090;52.330;9.104;2023-02-16T02:11:13;101553.94;;;4.75;88.86
3132;BME280;62090;52.330;9.104;2023-02-16T02:13:59;101811.44;;;6.22;88.51
3132;BME280;62090;52.330;9.104;2023-02-16T02:16:32;101813.94;;;6.08;88.24
3132;BME280;62090;52.330;9.104;2023-02-16T02:19:07;101666.34;;;5.37;88.16
3132;BME280;62090;52.330;9.104;2023-02-16T02:21:56;101621.66;;;4.95;88.19
3132;BME280;62090;52.330;9.104;2023-02-16T02:25:07;101621.47;;;4.92;88.39
3132;BME280;62090;52.330;9.104;2023-02-16T02:27:52;101793.00;;;6.10;88.53
3132;BME280;62090;52.330;9.104;2023-02-16T02:30:43;101804.03;;;5.98;87.97
3132;BME280;62090;52.330;9.104;2023-02-16T02:33:36;101628.38;;;4.94;87.78
3132;BME280;62090;52.330;9.104;2023-02-16T02:36:18;101546.63;;;4.51;88.42
3132;BME280;62090;52.330;9.104;2023-02-16T02:39:00;101755.69;;;5.65;89.03
3132;BME280;62090;52.330;9.104;2023-02-16T02:41:38;101773.66;;;5.98;88.52
3132;BME280;62090;52.330;9.104;2023-02-16T02:44:28;101605.03;;;4.98;88.77
3132;BME280;62090;52.330;9.104;2023-02-16T02:47:01;101733.28;;;5.71;89.57
3132;BME280;62090;52.330;9.104;2023-02-16T02:49:35;101645.75;;;5.31;89.38
3132;BME280;62090;52.330;9.104;2023-02-16T02:52:05;101698.94;;;5.60;89.40
3132;BME280;62090;52.330;9.104;2023-02-16T02:54:39;101686.69;;;5.53;89.93
3132;BME280;62090;52.330;9.104;2023-02-16T02:57:29;101644.31;;;5.21;90.06
3132;BME280;62090;52.330;9.104;2023-02-16T03:00:23;101725.91;;;5.74;90.15
3132;BME280;62090;52.330;9.104;2023-02-16T03:03:10;101714.78;;;5.72;90.25
3132;BME280;62090;52.330;9.104;2023-02-16T03:05:51;101463.53;;;4.13;89.90
3132;BME280;62090;52.330;9.104;2023-02-16T03:08:26;101580.63;;;4.84;89.82
3132;BME280;62090;52.330;9.104;2023-02-16T03:11:02;101670.19;;;5.45;90.54
3132;BME280;62090;52.330;9.104;2023-02-16T03:13:52;101686.34;;;5.62;90.20
3132;BME280;62090;52.330;9.104;2023-02-16T03:16:32;101778.16;;;6.16;90.09
3132;BME280;62090;52.330;9.104;2023-02-16T03:19:08;101696.72;;;5.66;90.53
3132;BME280;62090;52.330;9.104;2023-02-16T03:21:58;101424.59;;;3.95;90.44
3132;BME280;62090;52.330;9.104;2023-02-16T03:24:45;101727.41;;;5.58;90.54
3132;BME280;62090;52.330;9.104;2023-02-16T03:27:34;101609.41;;;5.01;90.39
3132;BME280;62090;52.330;9.104;2023-02-16T03:30:25;101793.34;;;6.02;90.45
3132;BME280;62090;52.330;9.104;2023-02-16T03:33:08;101462.38;;;4.21;90.62
3132;BME280;62090;52.330;9.104;2023-02-16T03:35:42;101724.97;;;5.59;90.40
3132;BME280;62090;52.330;9.104;2023-02-16T03:38:15;101808.41;;;6.00;89.83
3132;BME280;62090;52.330;9.104;2023-02-16T03:40:53;101646.06;;;5.22;89.52
3132;BME280;62090;52.330;9.104;2023-02-16T03:43:30;101792.09;;;5.95;90.13
3132;BME280;62090;52.330;9.104;2023-02-16T03:46:01;101538.16;;;4.64;89.40
3132;BME280;62090;52.330;9.104;2023-02-16T03:48:37;101716.97;;;5.66;89.55
3132;BME280;62090;52.330;9.104;2023-02-16T03:51:07;101714.03;;;5.73;89.16
3132;BME280;62090;52.330;9.104;2023-02-16T03:53:41;101793.00;;;6.10;88.78
3132;BME280;62090;52.330;9.104;2023-02-16T03:56:16;101706.94;;;5.40;88.82
3132;BME280;62090;52.330;9.104;2023-02-16T03:58:51;101678.97;;;5.37;88.92
3132;BME280;62090;52.330;9.104;2023-02-16T04:01:22;101747.59;;;5.71;88.82
3132;BME280;62090;52.330;9.104;2023-02-16T04:03:55;101570.81;;;4.48;88.31
3132;BME280;62090;52.330;9.104;2023-02-16T04:06:27;101774.41;;;5.54;90.00
3132;BME280;62090;52.330;9.104;2023-02-16T04:09:02;101529.72;;;3.96;90.65
3132;BME280;62090;52.330;9.104;2023-02-16T04:11:38;101708.63;;;4.85;92.30
3132;BME280;62090;52.330;9.104;2023-02-16T04:14:27;101774.66;;;5.18;93.48
3132;BME280;62090;52.330;9.104;2023-02-16T04:17:02;101480.13;;;3.44;93.50
3132;BME280;62090;52.330;9.104;2023-02-16T04:19:35;101527.75;;;3.79;93.55
3132;BME280;62090;52.330;9.104;2023-02-16T04:22:09;101681.06;;;4.62;94.08
3132;BME280;62090;52.330;9.104;2023-02-16T04:24:42;101495.97;;;3.68;94.67
3132;BME280;62090;52.330;9.104;2023-02-16T04:27:12;101683.88;;;4.80;94.23
3132;BME280;62090;52.330;9.104;2023-02-16T04:29:42;101575.59;;;4.17;94.18
3132;BME280;62090;52.330;9.104;2023-02-16T04:32:15;101460.47;;;3.65;94.22
3132;BME280;62090;52.330;9.104;2023-02-16T04:34:53;101557.91;;;4.30;93.55
3132;BME280;62090;52.330;9.104;2023-02-16T04:37:25;101612.63;;;4.44;93.87
3132;BME280;62090;52.330;9.104;2023-02-16T04:39:55;101624.25;;;4.55;94.37
3132;BME280;62090;52.330;9.104;2023-02-16T04:42:28;101746.72;;;5.29;93.81
3132;BME280;62090;52.330;9.104;2023-02-16T04:44:58;101743.63;;;5.33;93.91
3132;BME280;62090;52.330;9.104;2023-02-16T04:47:30;101676.38;;;4.81;93.35
3132;BME280;62090;52.330;9.104;2023-02-16T04:50:07;101555.69;;;4.21;92.90
3132;BME280;62090;52.330;9.104;2023-02-16T04:52:40;101678.03;;;4.81;93.17
3132;BME280;62090;52.330;9.104;2023-02-16T04:55:11;101666.88;;;4.64;93.16
3132;BME280;62090;52.330;9.104;2023-02-16T04:57:44;101665.22;;;4.51;94.02
3132;BME280;62090;52.330;9.104;2023-02-16T05:00:16;101385.38;;;3.07;94.85
3132;BME280;62090;52.330;9.104;2023-02-16T05:02:50;101626.53;;;4.38;95.21
3132;BME280;62090;52.330;9.104;2023-02-16T05:05:27;101664.06;;;4.59;95.02
3132;BME280;62090;52.330;9.104;2023-02-16T05:08:03;101436.44;;;3.30;95.33
3132;BME280;62090;52.330;9.104;2023-02-16T05:10:44;101468.59;;;3.34;95.61
3132;BME280;62090;52.330;9.104;2023-02-16T05:13:42;101539.69;;;3.81;95.74
3132;BME280;62090;52.330;9.104;2023-02-16T05:16:25;101750.38;;;4.93;96.07
3132;BME280;62090;52.330;9.104;2023-02-16T05:18:58;101526.78;;;3.77;95.13
3132;BME280;62090;52.330;9.104;2023-02-16T05:21:31;101577.03;;;4.00;95.35
3132;BME280;62090;52.330;9.104;2023-02-16T05:24:12;101488.00;;;3.49;95.83
3132;BME280;62090;52.330;9.104;2023-02-16T05:26:50;101579.16;;;4.20;95.19
3132;BME280;62090;52.330;9.104;2023-02-16T05:29:23;101704.66;;;4.76;94.66
3132;BME280;62090;52.330;9.104;2023-02-16T05:31:57;101487.59;;;3.56;95.10
3132;BME280;62090;52.330;9.104;2023-02-16T05:34:33;101662.50;;;4.61;95.25
3132;BME280;62090;52.330;9.104;2023-02-16T05:37:20;101755.59;;;5.09;94.87
3132;BME280;62090;52.330;9.104;2023-02-16T05:39:51;101561.50;;;4.07;94.64
3132;BME280;62090;52.330;9.104;2023-02-16T05:42:24;101474.25;;;3.44;94.31
3132;BME280;62090;52.330;9.104;2023-02-16T05:44:54;101683.69;;;4.63;95.32
3132;BME280;62090;52.330;9.104;2023-02-16T05:47:26;101770.47;;;5.05;95.05
3132;BME280;62090;52.330;9.104;2023-02-16T05:50:06;101711.44;;;4.77;94.29
3132;BME280;62090;52.330;9.104;2023-02-16T05:52:42;101766.97;;;5.16;94.37
3132;BME280;62090;52.330;9.104;2023-02-16T05:55:21;101749.28;;;5.16;93.93
3132;BME280;62090;52.330;9.104;2023-02-16T05:58:07;101716.59;;;4.91;93.91
3132;BME280;62090;52.330;9.104;2023-02-16T06:00:59;101493.03;;;3.49;93.84
3132;BME280;62090;52.330;9.104;2023-02-16T06:03:37;101504.16;;;3.39;94.41
3132;BME280;62090;52.330;9.104;2023-02-16T06:06:08;101734.97;;;4.76;95.16
3132;BME280;62090;52.330;9.104;2023-02-16T06:08:40;101586.22;;;3.73;94.33
3132;BME280;62090;52.330;9.104;2023-02-16T06:11:14;101576.97;;;3.48;94.45
3132;BME280;62090;52.330;9.104;2023-02-16T06:13:56;101744.06;;;4.47;94.89
3132;BME280;62090;52.330;9.104;2023-02-16T06:16:29;101745.72;;;4.60;94.30
3132;BME280;62090;52.330;9.104;2023-02-16T06:19:00;101744.06;;;4.47;94.10
3132;BME280;62090;52.330;9.104;2023-02-16T06:21:31;101779.69;;;4.52;94.41
3132;BME280;62090;52.330;9.104;2023-02-16T06:24:05;101661.66;;;3.97;93.98
3132;BME280;62090;52.330;9.104;2023-02-16T06:26:35;101554.44;;;3.37;94.88
3132;BME280;62090;52.330;9.104;2023-02-16T06:29:06;101712.72;;;4.06;94.50
3132;BME280;62090;52.330;9.104;2023-02-16T06:31:36;101687.88;;;3.99;95.42
3132;BME280;62090;52.330;9.104;2023-02-16T06:34:12;101580.56;;;3.26;96.04
3132;BME280;62090;52.330;9.104;2023-02-16T06:37:05;101637.22;;;3.82;95.89
3132;BME280;62090;52.330;9.104;2023-02-16T06:39:52;101771.34;;;4.53;95.54
3132;BME280;62090;52.330;9.104;2023-02-16T06:42:36;101378.94;;;2.47;95.33
3132;BME280;62090;52.330;9.104;2023-02-16T06:45:24;101775.50;;;4.65;95.82
3132;BME280;62090;52.330;9.104;2023-02-16T06:48:08;101723.16;;;4.37;94.98
3132;BME280;62090;52.330;9.104;2023-02-16T06:51:15;101787.88;;;4.74;95.69
3132;BME280;62090;52.330;9.104;2023-02-16T06:53:55;101618.72;;;3.95;94.59
3132;BME280;62090;52.330;9.104;2023-02-16T06:56:45;101772.34;;;5.07;93.41
3132;BME280;62090;52.330;9.104;2023-02-16T07:03:12;101783.41;;;5.23;92.02
3132;BME280;62090;52.330;9.104;2023-02-16T07:06:48;101563.81;;;4.31;92.23
3132;BME280;62090;52.330;9.104;2023-02-16T08:05:48;101440.44;;;4.48;86.81
3132;BME280;62090;52.330;9.104;2023-02-16T08:18:07;101544.31;;;5.83;87.08
3132;BME280;62090;52.330;9.104;2023-02-16T08:28:23;101470.75;;;5.79;85.78
3132;BME280;62090;52.330;9.104;2023-02-16T08:31:51;101734.19;;;7.35;84.67
3132;BME280;62090;52.330;9.104;2023-02-16T08:34:40;101583.78;;;6.40;84.13
3132;BME280;62090;52.330;9.104;2023-02-16T08:37:14;101511.00;;;6.05;83.50
3132;BME280;62090;52.330;9.104;2023-02-16T08:39:46;101756.31;;;7.53;82.68
3132;BME280;62090;52.330;9.104;2023-02-16T08:42:19;101745.47;;;7.56;83.21
3132;BME280;62090;52.330;9.104;2023-02-16T08:44:52;101736.00;;;7.53;83.44
3132;BME280;62090;52.330;9.104;2023-02-16T08:47:21;101681.63;;;7.16;83.79
3132;BME280;62090;52.330;9.104;2023-02-16T08:49:51;101728.00;;;7.46;83.04
3132;BME280;62090;52.330;9.104;2023-02-16T08:52:21;101736.34;;;7.59;83.17
3132;BME280;62090;52.330;9.104;2023-02-16T08:54:50;101740.31;;;7.71;82.83
3132;BME280;62090;52.330;9.104;2023-02-16T08:57:20;101747.75;;;7.84;82.62
3132;BME280;62090;52.330;9.104;2023-02-16T08:59:52;101683.53;;;7.52;81.72
3132;BME280;62090;52.330;9.104;2023-02-16T09:02:49;101753.59;;;7.83;82.12
3132;BME280;62090;52.330;9.104;2023-02-16T09:05:19;101754.66;;;7.70;82.03
3132;BME280;62090;52.330;9.104;2023-02-16T09:07:48;101699.59;;;7.20;81.75
3132;BME280;62090;52.330;9.104;2023-02-16T09:10:18;101763.75;;;7.50;82.33
3132;BME280;62090;52.330;9.104;2023-02-16T09:12:48;101738.84;;;7.27;82.53
3132;BME280;62090;52.330;9.104;2023-02-16T09:15:21;101704.59;;;7.03;82.23
3132;BME280;62090;52.330;9.104;2023-02-16T09:17:50;101755.06;;;7.31;82.87
3132;BME280;62090;52.330;9.104;2023-02-16T09:20:20;101737.72;;;7.22;82.71
3132;BME280;62090;52.330;9.104;2023-02-16T09:22:50;101760.38;;;7.35;82.36
3132;BME280;62090;52.330;9.104;2023-02-16T09:25:19;101754.78;;;7.41;82.32
3132;BME280;62090;52.330;9.104;2023-02-16T09:27:50;101730.22;;;7.09;82.31
3132;BME280;62090;52.330;9.104;2023-02-16T09:30:22;101718.03;;;7.02;83.06
3132;BME280;62090;52.330;9.104;2023-02-16T09:32:52;101758.34;;;7.28;83.08
3132;BME280;62090;52.330;9.104;2023-02-16T09:35:22;101764.34;;;7.30;83.75
3132;BME280;62090;52.330;9.104;2023-02-16T09:37:52;101730.94;;;7.37;82.50
3132;BME280;62090;52.330;9.104;2023-02-16T09:40:23;101749.81;;;7.58;82.30
3132;BME280;62090;52.330;9.104;2023-02-16T09:43:01;101665.06;;;7.06;81.66
3132;BME280;62090;52.330;9.104;2023-02-16T09:45:41;101668.78;;;6.97;82.50
3132;BME280;62090;52.330;9.104;2023-02-16T09:48:32;101678.56;;;6.91;83.04
3132;BME280;62090;52.330;9.104;2023-02-16T09:51:04;101754.34;;;7.17;83.15
3132;BME280;62090;52.330;9.104;2023-02-16T09:53:39;101659.25;;;6.62;83.06
3132;BME280;62090;52.330;9.104;2023-02-16T09:56:18;101742.75;;;7.06;83.49
3132;BME280;62090;52.330;9.104;2023-02-16T09:58:56;101740.56;;;7.12;83.29
3132;BME280;62090;52.330;9.104;2023-02-16T10:01:34;101751.66;;;7.30;83.11
3132;BME280;62090;52.330;9.104;2023-02-16T10:04:28;101705.75;;;7.09;82.96
3132;BME280;62090;52.330;9.104;2023-02-16T10:07:10;101766.44;;;7.37;82.91
3132;BME280;62090;52.330;9.104;2023-02-16T10:09:47;101768.84;;;7.67;82.01
3132;BME280;62090;52.330;9.104;2023-02-16T10:12:23;101749.72;;;7.57;81.26
3132;BME280;62090;52.330;9.104;2023-02-16T10:14:58;101612.53;;;6.88;81.41
3132;BME280;62090;52.330;9.104;2023-02-16T10:17:40;101759.16;;;7.59;81.24
3132;BME280;62090;52.330;9.104;2023-02-16T10:20:16;101722.44;;;7.37;81.49
3132;BME280;62090;52.330;9.104;2023-02-16T10:22:50;101604.69;;;6.83;81.29
3132;BME280;62090;52.330;9.104;2023-02-16T10:25:25;101726.31;;;7.46;81.83
3132;BME280;62090;52.330;9.104;2023-02-16T10:28:06;101768.78;;;7.81;81.36
3132;BME280;62090;52.330;9.104;2023-02-16T10:30:45;101755.28;;;7.66;82.09
3132;BME280;62090;52.330;9.104;2023-02-16T10:33:29;101746.94;;;7.69;82.02
3132;BME280;62090;52.330;9.104;2023-02-16T10:36:14;101776.63;;;7.86;82.59
3132;BME280;62090;52.330;9.104;2023-02-16T10:38:50;101757.19;;;7.86;82.40
3132;BME280;62090;52.330;9.104;2023-02-16T10:41:28;101761.53;;;8.05;81.90
3132;BME280;62090;52.330;9.104;2023-02-16T10:44:02;101738.94;;;7.93;81.53
3132;BME280;62090;52.330;9.104;2023-02-16T10:46:38;101713.25;;;7.87;82.25
3132;BME280;62090;52.330;9.104;2023-02-16T10:49:14;101693.97;;;7.91;81.44
3132;BME280;62090;52.330;9.104;2023-02-16T10:51:48;101723.28;;;8.34;81.45
3132;BME280;62090;52.330;9.104;2023-02-16T10:54:24;101701.66;;;8.26;80.22
3132;BME280;62090;52.330;9.104;2023-02-16T10:56:56;101743.25;;;8.44;80.42
3132;BME280;62090;52.330;9.104;2023-02-16T10:59:36;101707.06;;;8.32;80.15
3132;BME280;62090;52.330;9.104;2023-02-16T11:02:17;101660.41;;;7.96;80.08
3132;BME280;62090;52.330;9.104;2023-02-16T11:04:51;101754.81;;;8.56;79.77
3132;BME280;62090;52.330;9.104;2023-02-16T11:07:23;101741.94;;;8.53;80.16
3132;BME280;62090;52.330;9.104;2023-02-16T11:09:55;101763.97;;;8.87;79.79
3132;BME280;62090;52.330;9.104;2023-02-16T11:12:29;101723.72;;;8.79;79.59
3132;BME280;62090;52.330;9.104;2023-02-16T11:15:04;101718.06;;;9.02;79.10
3132;BME280;62090;52.330;9.104;2023-02-16T11:17:47;101680.31;;;8.92;77.17
3132;BME280;62090;52.330;9.104;2023-02-16T11:20:30;101714.63;;;9.19;77.01
3132;BME280;62090;52.330;9.104;2023-02-16T11:23:24;101696.91;;;9.40;75.97
3132;BME280;62090;52.330;9.104;2023-02-16T11:26:32;101637.81;;;8.89;77.42
3132;BME280;62090;52.330;9.104;2023-02-16T11:29:06;101566.06;;;8.58;76.83
3132;BME280;62090;52.330;9.104;2023-02-16T11:31:46;101691.84;;;9.22;76.98
3132;BME280;62090;52.330;9.104;2023-02-16T11:34:26;101711.41;;;9.43;77.45
3132;BME280;62090;52.330;9.104;2023-02-16T11:37:06;101720.88;;;9.64;76.19
3132;BME280;62090;52.330;9.104;2023-02-16T11:39:37;101714.75;;;9.42;75.74
3132;BME280;62090;52.330;9.104;2023-02-16T11:42:18;101659.38;;;8.98;76.32
3132;BME280;62090;52.330;9.104;2023-02-16T11:44:51;101589.31;;;8.48;77.68
3132;BME280;62090;52.330;9.104;2023-02-16T11:47:25;101726.00;;;9.27;77.64
3132;BME280;62090;52.330;9.104;2023-02-16T11:50:16;101721.56;;;9.23;77.60
3132;BME280;62090;52.330;9.104;2023-02-16T11:52:53;101658.59;;;8.81;78.87
3132;BME280;62090;52.330;9.104;2023-02-16T11:55:27;101666.63;;;8.90;78.70
3132;BME280;62090;52.330;9.104;2023-02-16T11:58:13;101703.09;;;9.08;78.15
3132;BME280;62090;52.330;9.104;2023-02-16T12:00:51;101680.13;;;8.89;78.57
3132;BME280;62090;52.330;9.104;2023-02-16T12:03:41;101655.78;;;8.75;78.88
3132;BME280;62090;52.330;9.104;2023-02-16T12:06:29;101690.75;;;8.98;78.45
3132;BME280;62090;52.330;9.104;2023-02-16T12:09:08;101650.78;;;8.76;78.86
3132;BME280;62090;52.330;9.104;2023-02-16T12:11:52;101675.50;;;8.98;78.67
3132;BME280;62090;52.330;9.104;2023-02-16T12:14:47;101638.47;;;8.85;78.16
3132;BME280;62090;52.330;9.104;2023-02-16T12:17:27;101659.31;;;9.15;78.52
3132;BME280;62090;52.330;9.104;2023-02-16T12:20:05;101667.38;;;9.44;78.44
3132;BME280;62090;52.330;9.104;2023-02-16T12:22:45;101678.13;;;9.77;76.51
3132;BME280;62090;52.330;9.104;2023-02-16T12:25:24;101650.81;;;9.72;76.13
3132;BME280;62090;52.330;9.104;2023-02-16T12:28:04;101671.69;;;9.85;76.07
3132;BME280;62090;52.330;9.104;2023-02-16T12:30:47;101542.63;;;9.02;75.93
3132;BME280;62090;52.330;9.104;2023-02-16T12:33:33;101614.84;;;9.65;75.76
3132;BME280;62090;52.330;9.104;2023-02-16T12:36:56;101583.59;;;9.48;75.11
3132;BME280;62090;52.330;9.104;2023-02-16T12:40:10;101697.81;;;10.21;75.66
3132;BME280;62090;52.330;9.104;2023-02-16T12:43:45;101485.50;;;8.94;75.67
3132;BME280;62090;52.330;9.104;2023-02-16T12:46:29;101348.44;;;8.19;76.18
3132;BME280;62090;52.330;9.104;2023-02-16T12:49:15;101520.50;;;9.40;75.53
3132;BME280;62090;52.330;9.104;2023-02-16T12:51:51;101519.63;;;9.39;75.41
3132;BME280;62090;52.330;9.104;2023-02-16T12:54:51;101665.16;;;10.31;75.89
3132;BME280;62090;52.330;9.104;2023-02-16T12:57:25;101589.97;;;9.99;75.67
3132;BME280;62090;52.330;9.104;2023-02-16T13:00:03;101517.59;;;9.72;74.53
3132;BME280;62090;52.330;9.104;2023-02-16T13:02:43;101583.63;;;10.10;74.94
3132;BME280;62090;52.330;9.104;2023-02-16T13:05:20;101558.56;;;9.99;74.63
3132;BME280;62090;52.330;9.104;2023-02-16T13:07:55;101666.00;;;10.73;74.20
3132;BME280;62090;52.330;9.104;2023-02-16T13:10:31;101517.41;;;9.88;74.54
3132;BME280;62090;52.330;9.104;2023-02-16T13:13:08;101611.28;;;10.65;74.54
3132;BME280;62090;52.330;9.104;2023-02-16T13:15:47;101678.06;;;11.01;74.57
3132;BME280;62090;52.330;9.104;2023-02-16T13:18:21;101680.06;;;10.86;75.18
3132;BME280;62090;52.330;9.104;2023-02-16T13:20:57;101566.19;;;10.42;74.77
3132;BME280;62090;52.330;9.104;2023-02-16T13:23:42;101513.25;;;10.12;74.65
3132;BME280;62090;52.330;9.104;2023-02-16T13:26:36;101550.00;;;10.18;75.72
3132;BME280;62090;52.330;9.104;2023-02-16T13:29:38;101520.41;;;10.21;75.19
3132;BME280;62090;52.330;9.104;2023-02-16T13:32:25;101567.31;;;10.48;75.23
3132;BME280;62090;52.330;9.104;2023-02-16T14:10:16;101377.50;;;9.69;78.25
3132;BME280;62090;52.330;9.104;2023-02-16T14:13:11;101459.88;;;10.15;78.53
3132;BME280;62090;52.330;9.104;2023-02-16T14:15:48;101510.50;;;10.51;78.12
3132;BME280;62090;52.330;9.104;2023-02-16T14:18:31;101467.13;;;10.49;78.15
3132;BME280;62090;52.330;9.104;2023-02-16T14:21:17;101393.47;;;10.09;77.77
3132;BME280;62090;52.330;9.104;2023-02-16T14:23:53;101487.09;;;10.61;77.88
3132;BME280;62090;52.330;9.104;2023-02-16T14:26:30;101405.25;;;10.07;78.21
3132;BME280;62090;52.330;9.104;2023-02-16T14:29:23;101436.47;;;10.24;78.43
3132;BME280;62090;52.330;9.104;2023-02-16T14:32:15;101315.50;;;9.45;77.86
3132;BME280;62090;52.330;9.104;2023-02-16T14:35:04;101473.00;;;10.25;78.09
3132;BME280;62090;52.330;9.104;2023-02-16T14:37:43;101388.59;;;9.71;78.11
3132;BME280;62090;52.330;9.104;2023-02-16T14:40:37;101421.56;;;9.90;78.13
3132;BME280;62090;52.330;9.104;2023-02-16T14:43:31;101572.78;;;10.81;78.21
3132;BME280;62090;52.330;9.104;2023-02-16T14:46:20;101575.66;;;10.89;78.22
3132;BME280;62090;52.330;9.104;2023-02-16T14:49:15;101576.16;;;10.80;78.38
3132;BME280;62090;52.330;9.104;2023-02-16T14:55:08;101545.59;;;10.58;78.76
3132;BME280;62090;52.330;9.104;2023-02-16T14:57:44;101562.13;;;10.69;78.73
3132;BME280;62090;52.330;9.104;2023-02-16T15:00:22;101545.31;;;10.50;78.35
3132;BME280;62090;52.330;9.104;2023-02-16T15:02:56;101560.19;;;10.62;78.85
3132;BME280;62090;52.330;9.104;2023-02-16T15:05:28;101547.09;;;10.53;79.33
3132;BME280;62090;52.330;9.104;2023-02-16T15:08:03;101590.56;;;10.80;79.68
3132;BME280;62090;52.330;9.104;2023-02-16T15:10:38;101590.06;;;10.88;79.80
3132;BME280;62090;52.330;9.104;2023-02-16T15:13:18;101539.56;;;10.56;79.09
3132;BME280;62090;52.330;9.104;2023-02-16T15:15:51;101572.00;;;10.82;79.32
3132;BME280;62090;52.330;9.104;2023-02-16T15:18:25;101589.59;;;10.98;78.36
3132;BME280;62090;52.330;9.104;2023-02-16T15:20:56;101559.81;;;10.75;78.56
3132;BME280;62090;52.330;9.104;2023-02-16T15:23:28;101559.66;;;10.71;79.13
3132;BME280;62090;52.330;9.104;2023-02-16T15:26:00;101510.28;;;10.45;79.07
3132;BME280;62090;52.330;9.104;2023-02-16T15:28:32;101558.63;;;10.89;79.25
3132;BME280;62090;52.330;9.104;2023-02-16T15:31:07;101531.69;;;10.72;79.46
3132;BME280;62090;52.330;9.104;2023-02-16T15:33:41;101516.47;;;10.51;79.05
3132;BME280;62090;52.330;9.104;2023-02-16T15:36:12;101558.06;;;10.74;79.61
3132;BME280;62090;52.330;9.104;2023-02-16T15:38:55;101538.94;;;10.62;79.51
3132;BME280;62090;52.330;9.104;2023-02-16T15:41:27;101563.19;;;10.74;79.64
3132;BME280;62090;52.330;9.104;2023-02-16T15:43:58;101551.72;;;10.63;79.17
3132;BME280;62090;52.330;9.104;2023-02-16T15:46:33;101546.75;;;10.66;79.58
3132;BME280;62090;52.330;9.104;2023-02-16T15:49:10;101550.16;;;10.67;79.55
3132;BME280;62090;52.330;9.104;2023-02-16T15:51:40;101556.47;;;10.76;80.10
3132;BME280;62090;52.330;9.104;2023-02-16T15:54:18;101563.00;;;10.70;79.37
3132;BME280;62090;52.330;9.104;2023-02-16T15:57:00;101572.34;;;10.69;80.19
3132;BME280;62090;52.330;9.104;2023-02-16T15:59:33;101559.09;;;10.55;80.43
3132;BME280;62090;52.330;9.104;2023-02-16T16:02:13;101512.19;;;10.28;80.50
3132;BME280;62090;52.330;9.104;2023-02-16T16:04:45;101578.22;;;10.67;81.17
3132;BME280;62090;52.330;9.104;2023-02-16T16:07:25;101578.63;;;10.79;80.57
3132;BME280;62090;52.330;9.104;2023-02-16T16:09:56;101574.31;;;10.76;80.11
3132;BME280;62090;52.330;9.104;2023-02-16T16:12:26;101580.84;;;10.92;79.88
3132;BME280;62090;52.330;9.104;2023-02-16T16:14:58;101545.81;;;10.64;79.98
3132;BME280;62090;52.330;9.104;2023-02-16T16:17:36;101575.44;;;10.84;80.30